Time;durP1;ratioP1;P1;durP2;ratioP2;P2;SDS_P1;SDS_P2;PMS_P1;PMS_P2;Temp;Humidity;BMP_temperature;BMP_pressure;BME280_temperature;BME280_humidity;BME280_pressure;Samples;Min_cycle;Max_cycle;Signal;HPM_P1;HPM_P2
2022/07/19 00:01:54;;;;;;;3.20;2.90;;;;;;;17.32;69.80;101086.82;84761;1326;24306;-70
2022/07/19 00:04:03;;;;;;;3.10;2.60;;;;;;;17.34;69.93;101081.94;84780;1327;23980;-70
2022/07/19 00:06:12;;;;;;;4.80;3.00;;;;;;;17.34;69.90;101081.92;84738;1327;22573;-71
2022/07/19 00:08:21;;;;;;;10.20;2.80;;;;;;;17.33;70.02;101088.54;84747;1327;22622;-71
2022/07/19 00:10:30;;;;;;;7.00;3.50;;;;;;;17.32;70.13;101083.98;84747;1327;22904;-71
2022/07/19 00:12:39;;;;;;;4.60;2.80;;;;;;;17.35;69.87;101082.97;84746;1328;22636;-72
2022/07/19 00:14:47;;;;;;;4.10;3.10;;;;;;;17.36;69.96;101081.50;84752;1330;22603;-71
2022/07/19 00:16:56;;;;;;;3.70;2.60;;;;;;;17.36;69.97;101083.60;84768;1327;24318;-70
2022/07/19 00:19:05;;;;;;;4.10;2.70;;;;;;;17.36;70.11;101083.08;84728;1326;22597;-70
2022/07/19 00:21:14;;;;;;;3.30;2.60;;;;;;;17.37;70.09;101084.41;84756;1326;25432;-71
2022/07/19 00:23:23;;;;;;;5.50;2.90;;;;;;;17.37;69.92;101078.41;84710;1326;22686;-71
2022/07/19 00:25:33;;;;;;;3.30;2.80;;;;;;;17.35;69.91;101075.55;84805;1323;22813;-71
2022/07/19 00:27:43;;;;;;;4.20;3.00;;;;;;;17.31;69.84;101077.52;84686;1329;25706;-71
2022/07/19 00:29:53;;;;;;;4.50;3.10;;;;;;;17.27;69.96;101080.52;84763;1327;27166;-71
2022/07/19 00:32:02;;;;;;;4.50;3.10;;;;;;;17.27;70.04;101082.81;84753;1326;22588;-71
2022/07/19 00:34:11;;;;;;;4.30;3.30;;;;;;;17.26;70.10;101083.92;84778;1326;22759;-71
2022/07/19 00:36:20;;;;;;;6.30;3.10;;;;;;;17.26;70.14;101079.19;84772;1326;22608;-70
2022/07/19 00:38:29;;;;;;;4.40;3.50;;;;;;;17.27;70.55;101081.27;84756;1326;25459;-70
2022/07/19 00:40:37;;;;;;;10.50;3.70;;;;;;;17.28;70.75;101083.50;84775;1326;23931;-72
2022/07/19 00:42:47;;;;;;;6.90;3.00;;;;;;;17.27;70.71;101081.44;84765;1326;22563;-72
2022/07/19 00:44:56;;;;;;;3.40;2.80;;;;;;;17.26;70.89;101075.83;84761;1326;24190;-71
2022/07/19 00:47:06;;;;;;;5.80;3.00;;;;;;;17.24;70.96;101077.90;84770;1326;23302;-71
2022/07/19 00:49:14;;;;;;;6.50;3.70;;;;;;;17.22;71.21;101074.50;84799;1330;22623;-70
2022/07/19 00:51:23;;;;;;;6.50;2.90;;;;;;;17.20;71.39;101074.74;84779;1324;22600;-71
2022/07/19 00:53:32;;;;;;;6.30;3.40;;;;;;;17.21;71.45;101068.38;84788;1329;22633;-71
2022/07/19 00:55:41;;;;;;;7.10;3.80;;;;;;;17.20;71.35;101069.29;84755;1326;23903;-71
2022/07/19 00:57:49;;;;;;;6.70;3.50;;;;;;;17.19;71.24;101070.95;84777;1326;22604;-71
2022/07/19 00:59:58;;;;;;;5.60;3.50;;;;;;;17.18;71.41;101074.36;84781;1326;22700;-71
2022/07/19 01:02:07;;;;;;;4.60;3.10;;;;;;;17.17;71.50;101066.67;84747;1328;22583;-70
2022/07/19 01:04:16;;;;;;;3.70;3.10;;;;;;;17.15;71.58;101064.82;84781;1326;22583;-70
2022/07/19 01:06:25;;;;;;;4.90;3.90;;;;;;;17.11;71.73;101065.38;84763;1323;22855;-71
2022/07/19 01:08:34;;;;;;;6.90;3.80;;;;;;;17.09;71.96;101062.69;84697;1327;25426;-71
2022/07/19 01:10:43;;;;;;;10.10;3.70;;;;;;;17.08;71.89;101060.25;84738;1326;24152;-72
2022/07/19 01:12:52;;;;;;;8.10;3.70;;;;;;;17.05;71.92;101059.73;84728;1324;23055;-71
2022/07/19 01:15:01;;;;;;;4.20;3.70;;;;;;;17.05;72.12;101062.05;84783;1326;22589;-71
2022/07/19 01:17:10;;;;;;;5.80;3.60;;;;;;;17.08;72.11;101065.00;84772;1326;25436;-71
2022/07/19 01:19:18;;;;;;;5.40;3.60;;;;;;;17.11;71.97;101066.23;84766;1325;22662;-72
2022/07/19 01:21:27;;;;;;;4.60;3.90;;;;;;;17.14;71.97;101067.33;84742;1325;22642;-71
2022/07/19 01:23:36;;;;;;;6.10;3.40;;;;;;;17.15;71.97;101062.38;84784;1326;22613;-70
2022/07/19 01:25:44;;;;;;;5.70;3.60;;;;;;;17.12;72.01;101062.84;84744;1327;25435;-69
2022/07/19 01:27:53;;;;;;;5.80;3.40;;;;;;;17.10;72.25;101060.49;84646;1328;24064;-70
2022/07/19 01:30:02;;;;;;;5.90;3.80;;;;;;;17.10;72.57;101056.64;84702;1331;24280;-70
2022/07/19 01:32:11;;;;;;;4.70;3.90;;;;;;;17.11;72.79;101059.24;84683;1327;25331;-70
2022/07/19 01:34:20;;;;;;;6.30;3.60;;;;;;;17.10;73.04;101058.77;84807;1329;23931;-70
2022/07/19 01:36:29;;;;;;;4.20;3.90;;;;;;;17.10;73.00;101055.06;84747;1326;22589;-71
2022/07/19 01:38:39;;;;;;;10.30;4.40;;;;;;;17.08;72.79;101056.40;84782;1328;24262;-70
2022/07/19 01:40:48;;;;;;;5.60;3.90;;;;;;;17.07;72.76;101052.77;84697;1327;22597;-71
2022/07/19 01:42:57;;;;;;;5.90;3.80;;;;;;;17.07;72.85;101050.09;84760;1327;22585;-71
2022/07/19 01:45:07;;;;;;;5.90;3.60;;;;;;;17.07;72.98;101052.04;84772;1320;22791;-70
2022/07/19 01:47:17;;;;;;;7.60;4.50;;;;;;;17.07;72.99;101051.89;84790;1326;24306;-71
2022/07/19 01:49:25;;;;;;;5.40;4.80;;;;;;;17.05;73.15;101050.73;84803;1330;25287;-71
2022/07/19 01:51:34;;;;;;;5.30;4.10;;;;;;;17.04;73.12;101052.54;84798;1326;22607;-69
2022/07/19 01:53:43;;;;;;;8.50;4.40;;;;;;;17.03;73.19;101053.27;84806;1326;23843;-70
2022/07/19 01:55:52;;;;;;;6.50;3.80;;;;;;;17.02;73.37;101054.39;84767;1326;23495;-70
2022/07/19 01:58:01;;;;;;;6.10;4.40;;;;;;;17.01;73.43;101052.89;84773;1325;22580;-70
2022/07/19 02:00:13;;;;;;;7.30;3.50;;;;;;;16.98;73.47;101052.85;84802;1329;22585;-70
2022/07/19 02:02:22;;;;;;;5.00;4.10;;;;;;;16.97;73.35;101053.96;84739;1328;24325;-71
2022/07/19 02:04:31;;;;;;;4.80;3.90;;;;;;;16.95;73.25;101053.23;84772;1326;22712;-69
2022/07/19 02:06:40;;;;;;;6.40;4.10;;;;;;;16.94;73.38;101051.15;84746;1324;24242;-70
2022/07/19 02:08:49;;;;;;;11.10;3.70;;;;;;;16.94;73.52;101050.41;84774;1326;23989;-70
2022/07/19 02:10:59;;;;;;;5.90;3.50;;;;;;;16.95;73.47;101047.77;84795;1320;22630;-71
2022/07/19 02:13:08;;;;;;;8.40;3.80;;;;;;;16.93;73.66;101047.13;84755;1321;23045;-71
2022/07/19 02:15:17;;;;;;;5.30;3.70;;;;;;;16.93;73.82;101047.84;84793;1326;26572;-72
2022/07/19 02:17:26;;;;;;;5.20;3.60;;;;;;;16.94;74.10;101051.85;84770;1328;22581;-69
2022/07/19 02:19:35;;;;;;;5.60;3.80;;;;;;;16.93;74.17;101045.02;84793;1326;22838;-70
2022/07/19 02:21:44;;;;;;;11.50;3.70;;;;;;;16.91;73.85;101040.91;84769;1327;25591;-70
2022/07/19 02:23:52;;;;;;;5.80;3.80;;;;;;;16.87;73.69;101043.73;84799;1326;22610;-70
2022/07/19 02:26:01;;;;;;;5.90;3.80;;;;;;;16.86;73.68;101037.29;84766;1327;22624;-70
2022/07/19 02:28:10;;;;;;;5.20;3.80;;;;;;;16.84;73.48;101041.11;84770;1324;22618;-70
2022/07/19 02:30:19;;;;;;;5.10;3.40;;;;;;;16.84;73.78;101043.39;84760;1326;23922;-70
2022/07/19 02:32:28;;;;;;;6.50;3.60;;;;;;;16.84;73.80;101045.32;84781;1328;22560;-72
2022/07/19 02:34:37;;;;;;;5.00;3.40;;;;;;;16.84;73.82;101044.77;84784;1323;22809;-70
2022/07/19 02:36:46;;;;;;;3.80;2.90;;;;;;;16.85;73.77;101041.23;84775;1326;22720;-70
2022/07/19 02:38:55;;;;;;;5.30;3.50;;;;;;;16.86;73.60;101042.24;84774;1326;25528;-70
2022/07/19 02:41:05;;;;;;;5.00;3.70;;;;;;;16.87;73.55;101040.79;84752;1326;24130;-70
2022/07/19 02:43:14;;;;;;;5.50;3.60;;;;;;;16.87;73.47;101042.35;84763;1326;22596;-70
2022/07/19 02:45:23;;;;;;;5.20;3.40;;;;;;;16.87;73.44;101040.27;84685;1331;24383;-70
2022/07/19 02:47:32;;;;;;;6.10;3.40;;;;;;;16.87;73.65;101040.06;84753;1326;22570;-70
2022/07/19 02:49:41;;;;;;;6.60;3.50;;;;;;;16.88;73.52;101041.58;84770;1326;22733;-70
2022/07/19 02:51:50;;;;;;;6.50;3.90;;;;;;;16.90;73.45;101041.30;84763;1326;24368;-70
2022/07/19 02:53:59;;;;;;;4.10;3.60;;;;;;;16.90;73.45;101044.13;84791;1328;22646;-70
2022/07/19 02:56:08;;;;;;;4.60;3.50;;;;;;;16.91;73.44;101040.19;84746;1327;23246;-70
2022/07/19 02:58:19;;;;;;;3.80;3.40;;;;;;;16.91;73.48;101036.00;84770;1327;22666;-70
2022/07/19 03:00:28;;;;;;;6.90;3.60;;;;;;;16.91;73.66;101039.13;84753;1326;22630;-70
2022/07/19 03:02:36;;;;;;;7.60;4.20;;;;;;;16.90;73.88;101036.91;84766;1326;22737;-71
2022/07/19 03:04:45;;;;;;;10.30;4.00;;;;;;;16.88;73.68;101038.40;84769;1326;23906;-69
2022/07/19 03:06:54;;;;;;;4.70;3.90;;;;;;;16.88;73.61;101040.85;84766;1326;22624;-71
2022/07/19 03:09:04;;;;;;;4.30;3.90;;;;;;;16.87;73.66;101045.38;84777;1327;22839;-69
2022/07/19 03:11:12;;;;;;;4.40;3.40;;;;;;;16.85;73.88;101054.27;84750;1327;22720;-71
2022/07/19 03:13:21;;;;;;;7.40;3.50;;;;;;;16.85;74.02;101058.13;84710;1328;22684;-72
2022/07/19 03:15:30;;;;;;;4.50;3.80;;;;;;;16.85;73.99;101060.63;84677;1327;24239;-71
2022/07/19 03:17:39;;;;;;;4.60;3.50;;;;;;;16.85;73.93;101057.45;84775;1327;22605;-70
2022/07/19 03:19:47;;;;;;;5.00;3.80;;;;;;;16.85;74.18;101053.59;84778;1321;25017;-70
2022/07/19 03:21:56;;;;;;;4.00;3.40;;;;;;;16.84;74.17;101052.58;84741;1327;22602;-71
2022/07/19 03:24:05;;;;;;;4.60;3.80;;;;;;;16.84;73.95;101057.29;84764;1326;25240;-71
2022/07/19 03:26:14;;;;;;;4.20;3.70;;;;;;;16.85;74.09;101060.27;84744;1326;22621;-71
2022/07/19 03:28:24;;;;;;;5.00;4.50;;;;;;;16.85;73.83;101054.11;84767;1326;23111;-71
2022/07/19 03:30:32;;;;;;;6.60;3.60;;;;;;;16.85;73.93;101054.81;84710;1329;22675;-72
2022/07/19 03:32:41;;;;;;;4.50;4.00;;;;;;;16.86;73.78;101058.13;84779;1324;25579;-71
2022/07/19 03:34:50;;;;;;;6.70;3.50;;;;;;;16.88;73.80;101053.77;84774;1326;24103;-71
2022/07/19 03:36:59;;;;;;;4.70;4.20;;;;;;;16.89;73.86;101051.04;84748;1328;23957;-71
2022/07/19 03:39:08;;;;;;;5.50;4.40;;;;;;;16.92;73.94;101054.08;84738;1327;22589;-70
2022/07/19 03:41:16;;;;;;;5.30;3.70;;;;;;;16.95;73.94;101056.92;84769;1325;22576;-71
2022/07/19 03:43:27;;;;;;;7.00;3.60;;;;;;;16.99;74.41;101054.56;84778;1327;22619;-72
2022/07/19 03:45:36;;;;;;;5.50;3.80;;;;;;;17.02;74.23;101056.52;84753;1326;22648;-70
2022/07/19 03:47:45;;;;;;;7.40;4.00;;;;;;;17.06;74.21;101059.30;84556;1326;259007;-70
2022/07/19 03:49:54;;;;;;;3.80;3.50;;;;;;;17.10;74.40;101061.55;84717;1329;22662;-70
2022/07/19 03:52:02;;;;;;;6.00;3.90;;;;;;;17.13;74.41;101060.31;84685;1329;23887;-70
2022/07/19 03:54:11;;;;;;;4.40;3.60;;;;;;;17.17;74.55;101060.13;84729;1329;22604;-70
2022/07/19 03:56:20;;;;;;;4.80;3.80;;;;;;;17.21;74.72;101060.77;84707;1329;22618;-69
2022/07/19 03:58:30;;;;;;;7.90;4.30;;;;;;;17.26;74.97;101060.48;84706;1330;22586;-72
2022/07/19 04:00:39;;;;;;;5.60;3.90;;;;;;;17.31;75.28;101060.59;84710;1329;26447;-72
2022/07/19 04:02:52;;;;;;;4.20;3.20;;;;;;;17.35;75.18;101056.30;84726;1323;22884;-70
2022/07/19 04:05:01;;;;;;;4.80;3.50;;;;;;;17.38;75.14;101055.23;84698;1331;22609;-71
2022/07/19 04:07:09;;;;;;;4.30;3.50;;;;;;;17.42;75.23;101050.11;84718;1325;23913;-71
2022/07/19 04:09:18;;;;;;;5.50;4.60;;;;;;;17.45;75.37;101044.43;84728;1329;24145;-70
2022/07/19 04:11:27;;;;;;;8.20;3.80;;;;;;;17.50;75.15;101044.20;84728;1327;22592;-70
2022/07/19 04:13:38;;;;;;;11.30;4.00;;;;;;;17.53;74.94;101043.67;84704;1327;22610;-70
2022/07/19 04:15:47;;;;;;;5.10;3.70;;;;;;;17.59;75.03;101044.41;84713;1326;26767;-70
2022/07/19 04:17:56;;;;;;;5.70;4.00;;;;;;;17.68;75.06;101042.30;84716;1327;24193;-72
2022/07/19 04:20:06;;;;;;;4.90;3.50;;;;;;;17.79;74.91;101038.00;84710;1326;22941;-69
2022/07/19 04:22:14;;;;;;;5.50;3.70;;;;;;;17.93;74.84;101034.35;84671;1327;25269;-70
2022/07/19 04:24:23;;;;;;;6.40;5.20;;;;;;;18.12;74.53;101039.58;84715;1322;22949;-70
2022/07/19 04:26:33;;;;;;;4.70;3.30;;;;;;;18.33;74.61;101035.01;84655;1331;22635;-70
2022/07/19 04:28:41;;;;;;;6.50;4.00;;;;;;;18.56;74.48;101041.37;84709;1329;22550;-72
2022/07/19 04:30:51;;;;;;;5.20;4.00;;;;;;;18.76;74.01;101043.56;84703;1330;22674;-70
2022/07/19 04:32:59;;;;;;;5.80;3.80;;;;;;;18.93;73.17;101037.51;84710;1329;22607;-72
2022/07/19 04:35:12;;;;;;;5.90;4.30;;;;;;;19.05;72.40;101033.75;84712;1327;23873;-71
2022/07/19 04:37:21;;;;;;;6.10;4.30;;;;;;;19.17;71.61;101037.80;84690;1327;22654;-71
2022/07/19 04:39:30;;;;;;;7.30;4.80;;;;;;;19.25;71.30;101035.20;84716;1323;22611;-71
2022/07/19 04:41:39;;;;;;;7.30;4.00;;;;;;;19.29;70.87;101037.22;84699;1328;23989;-71
2022/07/19 04:43:48;;;;;;;6.20;5.00;;;;;;;19.31;70.43;101037.11;84702;1329;22659;-70
2022/07/19 04:45:59;;;;;;;8.80;4.20;;;;;;;19.30;69.95;101040.67;84680;1328;25577;-69
2022/07/19 04:48:08;;;;;;;6.20;4.40;;;;;;;19.26;69.60;101043.21;84685;1328;24278;-71
2022/07/19 04:50:17;;;;;;;7.50;4.60;;;;;;;19.21;69.68;101041.23;84692;1328;23922;-71
2022/07/19 04:52:26;;;;;;;8.00;4.20;;;;;;;19.17;69.90;101048.23;84697;1328;22611;-71
2022/07/19 04:54:35;;;;;;;7.00;4.60;;;;;;;19.12;69.93;101044.63;84706;1329;25344;-71
2022/07/19 04:56:43;;;;;;;5.60;3.90;;;;;;;19.11;69.96;101043.87;84708;1328;26631;-71
2022/07/19 04:58:53;;;;;;;8.90;4.00;;;;;;;19.09;70.11;101048.59;84723;1329;22618;-71
2022/07/19 05:01:02;;;;;;;6.40;4.60;;;;;;;19.08;70.05;101049.48;84680;1328;22670;-72
2022/07/19 05:03:11;;;;;;;8.20;4.60;;;;;;;19.11;70.11;101052.89;84688;1327;24108;-71
2022/07/19 05:05:20;;;;;;;10.40;4.60;;;;;;;19.12;70.06;101051.90;84722;1329;22558;-71
2022/07/19 05:07:28;;;;;;;10.30;4.30;;;;;;;19.16;69.82;101058.02;84689;1327;23922;-71
2022/07/19 05:09:37;;;;;;;10.70;4.90;;;;;;;19.19;69.70;101060.17;84721;1327;22584;-70
2022/07/19 05:11:46;;;;;;;14.70;4.50;;;;;;;19.21;69.65;101058.09;84700;1324;22765;-70
2022/07/19 05:13:55;;;;;;;14.50;4.70;;;;;;;19.22;69.60;101053.05;84707;1329;26496;-70
2022/07/19 05:16:04;;;;;;;9.00;4.60;;;;;;;19.21;69.69;101049.58;84689;1329;24227;-71
2022/07/19 05:18:13;;;;;;;8.30;4.40;;;;;;;19.23;69.73;101051.07;84706;1326;22590;-71
2022/07/19 05:20:42;;;;;;;9.20;4.60;;;;;;;19.25;69.35;101051.98;84678;1323;22606;-71
2022/07/19 05:22:51;;;;;;;15.20;5.30;;;;;;;19.26;69.28;101050.85;84693;1329;23026;-71
2022/07/19 05:25:01;;;;;;;8.50;4.70;;;;;;;19.29;69.16;101048.36;84733;1327;23884;-71
2022/07/19 05:27:10;;;;;;;10.90;5.30;;;;;;;19.29;69.23;101046.55;84707;1327;22604;-69
2022/07/19 05:29:22;;;;;;;11.30;4.70;;;;;;;19.30;69.27;101045.45;84716;1331;25440;-70
2022/07/19 05:31:32;;;;;;;6.50;4.40;;;;;;;19.32;69.41;101041.25;84663;1329;22887;-69
2022/07/19 05:33:43;;;;;;;7.20;4.40;;;;;;;19.36;69.44;101039.58;84731;1328;22589;-70
2022/07/19 05:35:53;;;;;;;15.10;4.80;;;;;;;19.42;69.53;101031.45;84621;1329;22610;-70
2022/07/19 05:38:02;;;;;;;7.00;4.10;;;;;;;19.45;69.42;101034.59;84704;1328;22673;-69
2022/07/19 05:40:13;;;;;;;15.50;5.30;;;;;;;19.47;69.58;101038.71;84726;1329;22887;-71
2022/07/19 05:42:22;;;;;;;9.80;4.90;;;;;;;19.50;69.81;101039.19;84702;1327;24249;-71
2022/07/19 05:44:31;;;;;;;10.80;4.80;;;;;;;19.54;69.46;101039.13;84694;1326;24180;-71
2022/07/19 05:46:41;;;;;;;8.30;4.40;;;;;;;19.60;69.39;101038.39;84695;1326;23994;-70
2022/07/19 05:48:48;;;;;;;;;;;;;;;19.66;69.30;101039.79;84745;1328;22915;-70
2022/07/19 05:50:58;;;;;;;13.50;5.40;;;;;;;19.69;69.00;101038.90;84716;1329;23388;-72
2022/07/19 05:53:06;;;;;;;7.70;4.70;;;;;;;19.73;68.94;101038.28;84690;1321;22828;-72
2022/07/19 05:55:15;;;;;;;5.40;4.60;;;;;;;19.74;68.76;101039.06;84724;1327;22590;-70
2022/07/19 05:57:24;;;;;;;6.90;4.80;;;;;;;19.76;68.66;101036.30;84741;1326;22580;-72
2022/07/19 05:59:35;;;;;;;7.30;5.30;;;;;;;19.78;68.56;101034.43;84720;1329;24305;-70
2022/07/19 06:01:43;;;;;;;9.30;5.40;;;;;;;19.81;68.23;101038.30;84710;1324;22610;-71
2022/07/19 06:03:53;;;;;;;9.70;4.70;;;;;;;19.82;68.24;101041.95;84743;1330;22584;-72
2022/07/19 06:06:02;;;;;;;8.70;5.00;;;;;;;19.80;68.36;101049.48;84689;1329;23983;-69
2022/07/19 06:08:10;;;;;;;9.60;4.70;;;;;;;19.79;68.26;101052.21;84653;1325;24135;-69
2022/07/19 06:10:21;;;;;;;7.80;5.30;;;;;;;19.81;68.64;101061.27;84731;1327;22632;-70
2022/07/19 06:12:30;;;;;;;8.80;5.20;;;;;;;19.86;68.78;101066.29;84722;1327;22602;-70
2022/07/19 06:14:39;;;;;;;13.60;5.50;;;;;;;19.97;68.89;101065.73;84728;1330;22589;-70
2022/07/19 06:16:48;;;;;;;10.70;5.40;;;;;;;20.12;68.95;101066.86;84718;1329;24254;-71
2022/07/19 06:18:56;;;;;;;10.60;5.90;;;;;;;20.27;68.52;101068.17;84677;1326;22873;-71
2022/07/19 06:21:07;;;;;;;9.80;6.10;;;;;;;20.43;68.34;101066.36;84706;1328;24148;-71
2022/07/19 06:23:16;;;;;;;8.30;5.70;;;;;;;20.62;67.95;101063.11;84700;1326;24262;-69
2022/07/19 06:25:24;;;;;;;9.80;5.30;;;;;;;20.78;67.51;101059.86;84706;1327;24435;-69
2022/07/19 06:27:33;;;;;;;7.20;5.80;;;;;;;20.89;67.20;101055.91;84682;1329;22590;-72
2022/07/19 06:29:42;;;;;;;11.30;6.20;;;;;;;20.97;67.10;101053.45;84740;1329;26525;-72
2022/07/19 06:31:50;;;;;;;15.60;6.20;;;;;;;21.01;66.94;101053.69;84707;1330;23325;-71
2022/07/19 06:33:59;;;;;;;7.10;5.50;;;;;;;21.01;66.38;101048.67;84754;1327;22613;-72
2022/07/19 06:36:09;;;;;;;8.80;5.90;;;;;;;21.06;66.51;101050.80;84673;1330;22656;-72
2022/07/19 06:38:18;;;;;;;10.90;5.40;;;;;;;21.13;66.48;101051.41;84764;1327;22760;-72
2022/07/19 06:40:27;;;;;;;6.40;5.50;;;;;;;21.16;66.84;101051.17;84771;1327;22597;-72
2022/07/19 06:42:36;;;;;;;8.90;5.30;;;;;;;21.16;66.61;101054.41;84695;1327;22740;-72
2022/07/19 06:44:45;;;;;;;9.10;5.30;;;;;;;21.12;66.45;101057.81;84744;1327;22593;-72
2022/07/19 06:46:54;;;;;;;8.20;5.60;;;;;;;21.09;66.81;101063.02;84762;1327;22786;-72
2022/07/19 06:49:02;;;;;;;6.50;5.30;;;;;;;21.06;66.46;101061.32;84761;1327;22595;-72
2022/07/19 06:51:11;;;;;;;13.20;6.30;;;;;;;21.07;66.31;101060.66;84737;1327;22586;-72
2022/07/19 06:53:21;;;;;;;11.50;5.30;;;;;;;21.12;66.08;101059.11;84680;1329;22848;-72
2022/07/19 06:55:30;;;;;;;8.00;4.90;;;;;;;21.17;65.94;101061.40;84762;1324;22680;-71
2022/07/19 06:57:38;;;;;;;8.60;4.90;;;;;;;21.17;65.90;101061.42;84746;1326;25389;-72
2022/07/19 06:59:48;;;;;;;6.80;5.00;;;;;;;21.14;65.85;101062.86;84739;1327;22575;-72
2022/07/19 07:01:57;;;;;;;12.80;5.80;;;;;;;21.15;65.98;101062.83;84730;1328;22584;-73
2022/07/19 07:04:06;;;;;;;5.40;4.30;;;;;;;21.16;66.07;101062.34;84687;1329;22589;-71
2022/07/19 07:06:18;;;;;;;7.90;4.60;;;;;;;21.18;66.18;101058.33;84754;1330;22607;-71
2022/07/19 07:08:30;;;;;;;9.90;5.00;;;;;;;21.22;66.30;101059.42;84779;1325;22611;-72
2022/07/19 07:10:42;;;;;;;9.00;4.70;;;;;;;21.26;65.64;101058.41;84731;1325;22634;-71
2022/07/19 07:12:52;;;;;;;6.80;5.30;;;;;;;21.26;65.12;101056.45;84698;1328;22580;-71
2022/07/19 07:15:01;;;;;;;7.50;5.10;;;;;;;21.29;64.83;101055.75;84770;1327;22597;-71
2022/07/19 07:17:09;;;;;;;7.60;5.20;;;;;;;21.32;64.68;101054.67;84739;1327;22600;-73
2022/07/19 07:19:18;;;;;;;8.50;5.50;;;;;;;21.35;64.53;101050.37;84759;1327;22806;-72
2022/07/19 07:21:27;;;;;;;5.70;4.60;;;;;;;21.39;64.27;101047.45;84746;1327;22664;-72
2022/07/19 07:23:36;;;;;;;8.10;5.30;;;;;;;21.47;64.70;101050.05;84778;1328;25330;-72
2022/07/19 07:25:44;;;;;;;5.80;5.30;;;;;;;21.55;64.77;101051.73;84755;1327;22752;-72
2022/07/19 07:27:53;;;;;;;5.70;4.50;;;;;;;21.64;64.71;101048.45;84742;1327;22588;-72
2022/07/19 07:30:02;;;;;;;9.60;4.10;;;;;;;21.71;64.54;101050.18;84736;1327;22583;-73
2022/07/19 07:32:11;;;;;;;5.60;4.70;;;;;;;21.81;64.44;101049.51;84641;1328;22592;-72
2022/07/19 07:34:20;;;;;;;8.10;4.90;;;;;;;21.91;63.89;101047.47;84763;1327;23933;-72
2022/07/19 07:36:29;;;;;;;6.80;5.90;;;;;;;22.01;63.28;101044.44;84741;1327;24194;-72
2022/07/19 07:38:38;;;;;;;5.20;4.70;;;;;;;22.14;63.14;101045.45;84716;1327;22606;-74
2022/07/19 07:40:47;;;;;;;8.90;4.70;;;;;;;22.27;62.75;101038.61;84714;1325;22900;-72
2022/07/19 07:42:56;;;;;;;5.90;4.40;;;;;;;22.39;62.43;101034.27;84729;1329;22817;-72
2022/07/19 07:45:07;;;;;;;9.50;4.80;;;;;;;22.56;62.23;101040.05;84710;1329;25612;-72
2022/07/19 07:47:16;;;;;;;7.40;4.60;;;;;;;22.72;61.95;101041.81;84737;1330;22761;-73
2022/07/19 07:49:25;;;;;;;10.10;5.10;;;;;;;22.79;61.42;101040.77;84712;1325;24035;-72
2022/07/19 07:51:34;;;;;;;11.10;5.80;;;;;;;22.84;60.79;101040.57;84631;1329;22568;-74
2022/07/19 07:53:43;;;;;;;11.80;6.70;;;;;;;22.89;60.92;101043.37;84695;1329;22610;-73
2022/07/19 07:55:53;;;;;;;6.10;4.30;;;;;;;22.90;60.26;101042.92;84694;1328;22532;-71
2022/07/19 07:58:02;;;;;;;5.80;4.90;;;;;;;22.89;60.22;101045.83;84694;1329;22602;-71
2022/07/19 08:00:14;;;;;;;7.90;4.60;;;;;;;22.91;60.33;101044.46;84648;1328;22704;-73
2022/07/19 08:02:23;;;;;;;8.10;3.90;;;;;;;22.98;60.14;101044.64;84717;1324;22584;-72
2022/07/19 08:04:32;;;;;;;7.30;5.00;;;;;;;23.05;59.89;101049.40;84731;1327;26528;-72
2022/07/19 08:06:41;;;;;;;12.20;4.60;;;;;;;23.14;59.21;101049.24;84667;1328;22648;-72
2022/07/19 08:08:50;;;;;;;6.80;4.20;;;;;;;23.22;58.99;101053.76;84729;1329;24275;-71
2022/07/19 08:10:59;;;;;;;7.30;4.60;;;;;;;23.30;58.87;101053.24;84698;1328;23924;-72
2022/07/19 08:13:07;;;;;;;8.40;4.20;;;;;;;23.39;59.12;101057.91;84699;1322;23973;-72
2022/07/19 08:15:17;;;;;;;8.10;5.80;;;;;;;23.52;59.13;101056.48;84718;1327;23230;-71
2022/07/19 08:17:26;;;;;;;7.30;5.20;;;;;;;23.68;59.02;101056.23;84700;1325;25449;-71
2022/07/19 08:19:34;;;;;;;10.40;5.50;;;;;;;23.90;59.24;101048.92;84702;1329;22604;-71
2022/07/19 08:21:43;;;;;;;8.10;4.90;;;;;;;24.15;58.92;101052.67;84727;1330;22751;-73
2022/07/19 08:23:53;;;;;;;8.10;4.90;;;;;;;24.40;58.40;101050.26;84755;1325;24237;-73
2022/07/19 08:26:03;;;;;;;7.00;4.80;;;;;;;24.61;57.67;101052.38;84722;1329;25431;-74
2022/07/19 08:28:11;;;;;;;6.60;4.10;;;;;;;24.79;57.11;101052.17;84689;1329;22725;-74
2022/07/19 08:30:21;;;;;;;13.50;4.60;;;;;;;24.95;56.77;101054.05;84706;1328;22625;-72
2022/07/19 08:32:29;;;;;;;9.40;5.20;;;;;;;25.10;55.90;101052.56;84650;1328;22600;-72
2022/07/19 08:34:38;;;;;;;5.80;4.40;;;;;;;25.28;54.86;101049.91;84740;1325;22587;-72
2022/07/19 08:36:47;;;;;;;6.90;5.10;;;;;;;25.63;54.87;101050.20;84737;1325;24257;-71
2022/07/19 08:38:56;;;;;;;6.80;4.30;;;;;;;26.16;54.47;101049.21;84748;1325;22577;-73
2022/07/19 08:41:04;;;;;;;5.60;4.70;;;;;;;26.61;51.73;101046.48;84689;1329;25443;-72
2022/07/19 08:43:14;;;;;;;12.20;5.00;;;;;;;26.86;50.75;101045.85;84650;1321;22843;-72
2022/07/19 08:45:23;;;;;;;5.10;4.60;;;;;;;27.15;50.73;101039.83;84722;1329;23915;-73
2022/07/19 08:47:32;;;;;;;6.10;4.10;;;;;;;27.61;49.62;101033.10;84724;1330;22582;-73
2022/07/19 08:49:44;;;;;;;10.00;4.70;;;;;;;27.98;48.54;101028.36;84679;1328;22590;-73
2022/07/19 08:51:53;;;;;;;13.10;4.90;;;;;;;28.47;48.43;101025.33;84719;1327;23990;-73
2022/07/19 08:54:02;;;;;;;9.20;4.40;;;;;;;29.10;46.73;101025.80;84726;1329;22864;-71
2022/07/19 08:58:39;;;;;;;6.70;4.00;;;;;;;29.24;44.66;101021.52;84713;1323;22584;-72
2022/07/19 09:00:47;;;;;;;9.80;4.10;;;;;;;29.79;44.61;101018.48;84748;1331;22584;-71
2022/07/19 09:02:59;;;;;;;7.00;3.90;;;;;;;30.65;41.95;101019.95;84716;1328;23896;-71
2022/07/19 09:05:10;;;;;;;4.90;3.30;;;;;;;31.45;41.33;101016.88;84722;1329;22629;-71
2022/07/19 09:07:21;;;;;;;4.90;3.30;;;;;;;32.38;40.43;101012.77;84724;1329;25321;-71
2022/07/19 09:09:31;;;;;;;8.70;3.10;;;;;;;33.26;37.14;101012.87;84734;1331;23960;-71
2022/07/19 09:11:48;;;;;;;4.50;3.00;;;;;;;33.52;36.88;101009.64;84651;1329;22626;-71
2022/07/19 09:13:57;;;;;;;6.40;3.20;;;;;;;33.45;35.78;101013.40;84733;1331;23871;-71
2022/07/19 09:16:06;;;;;;;5.50;3.30;;;;;;;33.41;36.03;101011.05;84654;1328;22617;-72
2022/07/19 09:18:19;;;;;;;4.30;2.90;;;;;;;33.49;35.78;101011.15;84681;1329;23858;-72
2022/07/19 09:20:31;;;;;;;5.10;3.20;;;;;;;33.65;35.16;101009.81;84704;1329;22592;-72
2022/07/19 09:22:40;;;;;;;7.60;3.40;;;;;;;33.66;35.01;101012.61;84724;1326;23945;-72
2022/07/19 09:24:51;;;;;;;6.90;2.80;;;;;;;33.60;34.17;101008.42;84692;1329;22690;-73
2022/07/19 09:27:03;;;;;;;5.50;3.00;;;;;;;33.63;34.25;101006.08;84726;1327;22586;-73
2022/07/19 09:29:22;;;;;;;6.70;2.90;;;;;;;33.77;34.77;101000.69;84738;1330;22573;-72
2022/07/19 09:31:31;;;;;;;5.60;2.80;;;;;;;33.79;34.23;101000.17;84684;1331;22619;-72
2022/07/19 09:33:45;;;;;;;;;;;;;;;33.75;33.98;100999.46;84748;1329;22846;-72
2022/07/19 09:35:57;;;;;;;3.30;3.00;;;;;;;33.69;33.79;101005.30;84693;1329;22730;-73
2022/07/19 09:38:21;;;;;;;5.10;3.10;;;;;;;33.59;34.33;101005.33;84671;1322;22635;-72
2022/07/19 09:40:35;;;;;;;3.60;3.20;;;;;;;33.42;33.99;101003.80;84695;1331;25466;-72
2022/07/19 09:42:45;;;;;;;6.80;2.70;;;;;;;33.28;34.42;101007.02;84737;1329;23893;-71
2022/07/19 09:45:02;;;;;;;3.20;2.90;;;;;;;33.22;35.04;101005.38;84679;1329;23062;-72
2022/07/19 09:47:11;;;;;;;5.30;3.80;;;;;;;33.20;34.92;100998.95;84692;1328;22603;-72
2022/07/19 09:49:21;;;;;;;4.20;2.60;;;;;;;33.17;34.39;101004.56;84732;1330;25534;-72
2022/07/19 09:51:29;;;;;;;4.70;2.50;;;;;;;33.14;33.77;101004.23;84698;1331;22668;-72
2022/07/19 09:53:38;;;;;;;8.80;2.80;;;;;;;33.04;32.95;101001.98;84734;1329;24341;-72
2022/07/19 09:55:47;;;;;;;3.70;2.30;;;;;;;32.97;33.28;101005.85;84736;1330;25831;-72
2022/07/19 09:57:57;;;;;;;5.20;2.60;;;;;;;32.92;32.84;101000.14;84647;1328;22587;-72
2022/07/19 10:00:10;;;;;;;2.80;2.20;;;;;;;32.81;33.32;100999.33;84742;1331;22587;-72
2022/07/19 10:02:19;;;;;;;10.50;2.80;;;;;;;32.75;33.62;100996.69;84708;1331;22690;-72
2022/07/19 10:04:29;;;;;;;2.80;2.40;;;;;;;32.76;33.15;100997.52;84739;1329;25655;-73